createdAt,value
2019-05-16T00:00:34.905Z,60.69
2019-05-16T00:03:03.905Z,60.75
2019-05-16T00:05:32.751Z,60.74
2019-05-16T00:08:01.194Z,60.88
2019-05-16T00:10:29.698Z,61.21
2019-05-16T00:12:59.670Z,61.35
2019-05-16T00:15:28.842Z,61.81
2019-05-16T00:17:58.334Z,61.87
2019-05-16T00:20:28.438Z,61.97
2019-05-16T00:22:58.909Z,62.00
2019-05-16T00:25:28.586Z,62.38
2019-05-16T00:27:58.688Z,62.93
2019-05-16T00:30:28.827Z,63.34
2019-05-16T00:32:58.785Z,64.13
2019-05-16T00:35:28.631Z,64.71
2019-05-16T00:37:59.065Z,65.31
2019-05-16T00:40:27.935Z,65.92
2019-05-16T00:42:58.770Z,66.25
2019-05-16T00:45:29.157Z,66.74
2019-05-16T00:47:58.498Z,67.09
2019-05-16T00:50:28.863Z,67.40
2019-05-16T00:52:58.893Z,67.68
2019-05-16T00:55:28.463Z,67.77
2019-05-16T00:57:58.398Z,67.97
2019-05-16T01:00:45.391Z,67.82
2019-05-16T01:03:14.338Z,67.81
2019-05-16T01:05:43.525Z,68.03
2019-05-16T01:08:12.618Z,68.09
2019-05-16T01:10:41.250Z,68.24
2019-05-16T01:13:09.716Z,68.27
2019-05-16T01:15:38.336Z,68.26
2019-05-16T01:18:08.062Z,68.17
2019-05-16T01:20:38.626Z,68.27
2019-05-16T01:23:08.879Z,68.38
2019-05-16T01:25:38.782Z,68.50
2019-05-16T01:28:08.835Z,68.43
2019-05-16T01:30:38.105Z,68.49
2019-05-16T01:33:08.928Z,68.50
2019-05-16T01:35:38.591Z,68.55
2019-05-16T01:38:08.680Z,68.63
2019-05-16T01:40:38.695Z,68.73
2019-05-16T01:43:08.530Z,68.88
2019-05-16T01:45:38.411Z,68.98
2019-05-16T01:48:08.449Z,69.24
2019-05-16T01:50:38.795Z,69.48
2019-05-16T01:53:08.606Z,69.69
2019-05-16T01:55:38.121Z,70.04
2019-05-16T01:58:08.009Z,70.01
2019-05-16T02:00:48.614Z,70.43
2019-05-16T02:03:08.361Z,71.03
2019-05-16T02:05:38.727Z,71.42
2019-05-16T02:08:08.956Z,71.53
2019-05-16T02:10:37.964Z,71.77
2019-05-16T02:13:08.513Z,71.91
2019-05-16T02:15:38.276Z,72.04
2019-05-16T02:18:08.313Z,72.27
2019-05-16T02:20:39.307Z,72.65
2019-05-16T02:23:08.064Z,72.98
2019-05-16T02:25:38.207Z,73.38
2019-05-16T02:28:07.264Z,73.51
2019-05-16T02:30:35.877Z,73.87
2019-05-16T02:33:04.349Z,74.35
2019-05-16T02:35:32.911Z,74.33
2019-05-16T02:38:01.482Z,74.87
2019-05-16T02:40:31.257Z,74.90
2019-05-16T02:43:01.654Z,75.05
2019-05-16T02:45:32.534Z,75.19
2019-05-16T02:48:01.243Z,75.40
2019-05-16T02:50:31.572Z,75.45
2019-05-16T02:53:01.566Z,75.60
2019-05-16T02:55:30.968Z,75.69
2019-05-16T02:58:00.686Z,75.84
2019-05-16T03:00:41.952Z,76.03
2019-05-16T03:03:12.031Z,76.02
2019-05-16T03:05:41.945Z,76.16
2019-05-16T03:08:12.018Z,76.14
2019-05-16T03:10:41.380Z,76.13
2019-05-16T03:13:11.351Z,76.25
2019-05-16T03:15:40.952Z,76.44
2019-05-16T03:18:11.533Z,76.43
2019-05-16T03:20:40.916Z,76.55
2019-05-16T03:23:11.296Z,76.94
2019-05-16T03:25:41.832Z,76.77
2019-05-16T03:28:11.157Z,76.97
2019-05-16T03:30:44.763Z,77.03
2019-05-16T03:33:19.468Z,77.06
2019-05-16T03:35:44.583Z,77.29
2019-05-16T03:38:12.357Z,77.72
2019-05-16T03:40:41.412Z,77.77
2019-05-16T03:43:11.568Z,77.76
2019-05-16T03:45:42.019Z,77.62
2019-05-16T03:48:12.296Z,77.95
2019-05-16T03:50:42.046Z,77.79
2019-05-16T03:53:11.647Z,78.15
2019-05-16T03:55:41.809Z,78.28
2019-05-16T03:58:11.726Z,78.84
2019-05-16T04:00:55.577Z,79.22
2019-05-16T04:03:28.132Z,79.40
2019-05-16T04:05:55.579Z,79.32
2019-05-16T04:08:26.909Z,79.57
2019-05-16T04:10:56.461Z,79.85
2019-05-16T04:13:25.348Z,79.66
2019-05-16T04:15:54.161Z,79.73
2019-05-16T04:18:22.854Z,80.18
2019-05-16T04:20:57.141Z,79.90
2019-05-16T04:23:25.662Z,80.26
2019-05-16T04:25:54.698Z,80.35
2019-05-16T04:28:24.357Z,80.16
2019-05-16T04:30:53.232Z,81.08
2019-05-16T04:33:25.074Z,80.85
2019-05-16T04:35:54.681Z,81.02
2019-05-16T04:38:40.380Z,81.13
2019-05-16T04:40:54.518Z,81.01
2019-05-16T04:43:23.057Z,81.38
2019-05-16T04:45:52.384Z,81.32
2019-05-16T04:48:23.266Z,81.59
2019-05-16T04:50:52.140Z,82.27
2019-05-16T04:53:21.452Z,82.17
2019-05-16T04:55:51.386Z,82.02
2019-05-16T04:58:23.378Z,82.09
2019-05-16T05:00:51.985Z,82.26
2019-05-16T05:03:21.644Z,82.14
2019-05-16T05:05:51.399Z,82.23
2019-05-16T05:08:22.069Z,82.07
2019-05-16T05:10:51.815Z,82.30
2019-05-16T05:13:22.139Z,82.11
2019-05-16T05:15:51.261Z,82.00
2019-05-16T05:18:21.351Z,81.81
2019-05-16T05:20:52.135Z,81.78
2019-05-16T05:23:21.149Z,81.71
2019-05-16T05:25:51.260Z,81.74
2019-05-16T05:28:21.047Z,82.00
2019-05-16T05:30:50.472Z,81.84
2019-05-16T05:33:21.095Z,81.62
2019-05-16T05:35:50.618Z,81.55
2019-05-16T05:38:21.261Z,81.24
2019-05-16T05:40:50.978Z,81.10
2019-05-16T05:43:21.525Z,81.21
2019-05-16T05:45:51.282Z,81.43
2019-05-16T05:48:21.615Z,80.92
2019-05-16T05:50:51.053Z,80.85
2019-05-16T05:53:20.877Z,80.43
2019-05-16T05:55:51.196Z,80.39
2019-05-16T05:58:20.726Z,80.19
2019-05-16T06:00:51.710Z,79.69
2019-05-16T06:03:22.358Z,79.31
2019-05-16T06:05:50.562Z,79.26
2019-05-16T06:08:20.541Z,79.12
2019-05-16T06:10:50.644Z,79.16
2019-05-16T06:13:20.955Z,78.90
2019-05-16T06:15:51.077Z,79.14
2019-05-16T06:18:20.039Z,78.97
2019-05-16T06:20:51.160Z,78.47
2019-05-16T06:23:20.671Z,78.79
2019-05-16T06:25:50.718Z,78.53
2019-05-16T06:28:20.759Z,78.10
2019-05-16T06:30:51.400Z,78.26
2019-05-16T06:33:20.273Z,77.60
2019-05-16T06:35:51.432Z,77.46
2019-05-16T06:38:20.908Z,77.28
2019-05-16T06:40:52.188Z,77.06
2019-05-16T06:43:20.453Z,76.37
2019-05-16T06:45:51.328Z,76.52
2019-05-16T06:48:21.301Z,76.42
2019-05-16T06:50:51.515Z,76.59
2019-05-16T06:53:21.133Z,76.27
2019-05-16T06:55:49.999Z,76.09
2019-05-16T06:58:21.838Z,76.60
2019-05-16T07:00:52.412Z,76.21
2019-05-16T07:03:20.482Z,75.72
2019-05-16T07:05:50.317Z,76.02
2019-05-16T07:08:20.813Z,76.30
2019-05-16T07:10:50.778Z,77.00
2019-05-16T07:13:21.416Z,76.64
2019-05-16T07:15:50.447Z,76.91
2019-05-16T07:18:20.845Z,77.02
2019-05-16T07:20:51.329Z,77.18
2019-05-16T07:23:22.927Z,76.90
2019-05-16T07:25:51.517Z,76.88
2019-05-16T07:28:20.835Z,76.87
2019-05-16T07:30:50.742Z,77.02
2019-05-16T07:33:21.336Z,77.36
2019-05-16T07:35:51.725Z,77.60
2019-05-16T07:38:20.703Z,78.38
2019-05-16T07:40:51.273Z,78.97
2019-05-16T07:43:24.027Z,79.22
2019-05-16T07:45:54.641Z,79.68
2019-05-16T07:48:25.466Z,80.66
2019-05-16T07:51:00.388Z,80.27
2019-05-16T07:53:32.739Z,80.70
2019-05-16T07:56:00.129Z,81.01
2019-05-16T07:58:31.313Z,81.42
2019-05-16T08:01:07.604Z,82.06
2019-05-16T08:03:32.064Z,81.99
2019-05-16T08:06:05.225Z,82.27
2019-05-16T08:08:33.845Z,82.96
2019-05-16T08:11:02.758Z,83.13
2019-05-16T08:13:31.363Z,83.64
2019-05-16T08:16:01.114Z,84.17
2019-05-16T08:18:32.818Z,84.69
2019-05-16T08:21:03.017Z,84.59
2019-05-16T08:23:32.424Z,84.42
2019-05-16T08:26:03.089Z,84.69
2019-05-16T08:28:33.577Z,84.65
2019-05-16T08:31:05.071Z,84.50
2019-05-16T08:33:34.558Z,84.45
2019-05-16T08:36:08.121Z,84.44
2019-05-16T08:38:35.012Z,84.25
2019-05-16T08:41:12.292Z,83.46
2019-05-16T08:43:37.438Z,83.35
2019-05-16T08:46:07.427Z,83.08
2019-05-16T08:48:42.018Z,83.18
2019-05-16T08:51:12.173Z,82.79
2019-05-16T08:53:43.584Z,83.11
2019-05-16T08:56:13.223Z,82.79
2019-05-16T08:58:41.835Z,83.20
2019-05-16T09:01:14.688Z,83.15
2019-05-16T09:03:41.750Z,83.36
2019-05-16T09:06:11.927Z,83.22
2019-05-16T09:08:40.568Z,84.17
2019-05-16T09:11:26.975Z,83.70
2019-05-16T09:13:42.276Z,83.81
2019-05-16T09:16:10.831Z,83.75
2019-05-16T09:18:45.931Z,84.04
2019-05-16T09:21:13.072Z,83.87
2019-05-16T09:23:41.698Z,83.32
2019-05-16T09:26:10.254Z,83.63
2019-05-16T09:28:40.443Z,83.97
2019-05-16T09:31:09.677Z,84.17
2019-05-16T09:33:41.212Z,84.23
2019-05-16T09:36:10.181Z,83.97
2019-05-16T09:38:39.405Z,84.01
2019-05-16T09:41:08.332Z,84.14
2019-05-16T09:43:38.874Z,84.39
2019-05-16T09:46:07.946Z,84.31
2019-05-16T09:48:38.068Z,84.08
2019-05-16T09:51:06.859Z,84.13
2019-05-16T09:53:37.018Z,83.85
2019-05-16T09:56:07.183Z,84.01
2019-05-16T09:58:37.285Z,84.17
2019-05-16T10:01:06.303Z,84.43
2019-05-16T10:03:37.018Z,84.38
2019-05-16T10:06:07.703Z,84.39
2019-05-16T10:08:37.459Z,84.58
2019-05-16T10:11:06.382Z,84.79
2019-05-16T10:13:37.625Z,84.32
2019-05-16T10:16:07.225Z,84.35
2019-05-16T10:18:36.982Z,83.88
2019-05-16T10:21:08.144Z,83.63
2019-05-16T10:23:37.851Z,83.02
2019-05-16T10:26:07.897Z,82.21
2019-05-16T10:28:38.444Z,81.43
2019-05-16T10:31:07.086Z,81.39
2019-05-16T10:33:39.067Z,81.34
2019-05-16T10:36:08.494Z,81.19
2019-05-16T10:38:37.433Z,80.46
2019-05-16T10:41:07.521Z,80.62
2019-05-16T10:43:37.069Z,80.61
2019-05-16T10:46:06.475Z,80.18
2019-05-16T10:48:37.509Z,80.05
2019-05-16T10:51:07.748Z,80.51
2019-05-16T10:54:00.428Z,80.16
2019-05-16T10:56:07.765Z,79.53
2019-05-16T10:59:04.141Z,79.73
2019-05-16T11:01:22.557Z,79.17
2019-05-16T11:03:38.758Z,78.78
2019-05-16T11:06:17.441Z,78.29
2019-05-16T11:08:39.671Z,78.47
2019-05-16T11:11:08.234Z,78.25
2019-05-16T11:13:37.087Z,78.92
2019-05-16T11:16:07.070Z,79.10
2019-05-16T11:18:37.579Z,79.56
2019-05-16T11:21:06.329Z,79.88
2019-05-16T11:23:36.713Z,80.69
2019-05-16T11:26:07.021Z,81.96
2019-05-16T11:28:36.921Z,82.42
2019-05-16T11:31:07.595Z,82.79
2019-05-16T11:33:38.636Z,82.07
2019-05-16T11:36:09.025Z,81.98
2019-05-16T11:38:37.995Z,82.75
2019-05-16T11:41:07.350Z,83.12
2019-05-16T11:43:36.713Z,83.32
2019-05-16T11:46:05.468Z,83.83
2019-05-16T11:48:34.000Z,84.14
2019-05-16T11:51:06.833Z,84.34
2019-05-16T11:53:34.680Z,84.97
2019-05-16T11:56:03.992Z,85.16
2019-05-16T11:58:32.581Z,84.98
2019-05-16T12:01:01.203Z,85.61
2019-05-16T12:03:29.719Z,86.04
2019-05-16T12:05:58.263Z,86.05
2019-05-16T12:08:27.822Z,86.41
2019-05-16T12:10:56.312Z,86.68
2019-05-16T12:13:31.775Z,86.45
2019-05-16T12:15:56.913Z,86.73
2019-05-16T12:18:26.571Z,86.81
2019-05-16T12:20:56.585Z,86.95
2019-05-16T12:23:29.548Z,86.69
2019-05-16T12:26:00.225Z,87.36
2019-05-16T12:28:32.525Z,87.53
2019-05-16T12:31:02.273Z,87.59
2019-05-16T12:33:31.690Z,87.30
2019-05-16T12:36:01.874Z,87.60
2019-05-16T12:38:32.676Z,87.89
2019-05-16T12:41:01.242Z,87.83
2019-05-16T12:43:46.134Z,88.04
2019-05-16T12:46:07.177Z,87.85
2019-05-16T12:48:37.347Z,88.66
2019-05-16T12:51:08.432Z,88.44
2019-05-16T12:53:38.818Z,88.77
2019-05-16T12:56:07.937Z,89.04
2019-05-16T12:58:41.632Z,88.71
2019-05-16T13:01:10.166Z,88.43
2019-05-16T13:03:41.767Z,88.60
2019-05-16T13:06:11.911Z,88.53
2019-05-16T13:08:43.013Z,88.47
2019-05-16T13:11:14.191Z,88.57
2019-05-16T13:13:57.359Z,88.61
2019-05-16T13:16:13.028Z,88.74
2019-05-16T13:18:41.823Z,88.70
2019-05-16T13:21:10.588Z,88.64
2019-05-16T13:23:39.228Z,88.39
2019-05-16T13:26:08.037Z,88.38
2019-05-16T13:28:38.034Z,88.82
2019-05-16T13:31:07.888Z,88.97
2019-05-16T13:33:36.937Z,88.69
2019-05-16T13:36:07.432Z,88.44
2019-05-16T13:38:35.964Z,88.36
2019-05-16T13:41:07.269Z,88.13
2019-05-16T13:43:37.339Z,88.26
2019-05-16T13:46:07.038Z,88.41
2019-05-16T13:48:37.710Z,88.22
2019-05-16T13:51:13.818Z,88.24
2019-05-16T13:53:37.091Z,88.33
2019-05-16T13:56:12.972Z,88.97
2019-05-16T13:58:37.792Z,88.86
2019-05-16T14:01:07.898Z,88.71
2019-05-16T14:03:37.349Z,87.95
2019-05-16T14:06:07.217Z,88.38
2019-05-16T14:08:37.343Z,88.15
2019-05-16T14:11:10.100Z,87.70
2019-05-16T14:13:37.616Z,87.78
2019-05-16T14:16:07.291Z,87.87
2019-05-16T14:18:37.807Z,88.17
2019-05-16T14:21:06.880Z,88.28
2019-05-16T14:23:37.939Z,88.52
2019-05-16T14:26:07.223Z,88.86
2019-05-16T14:28:37.487Z,88.58
2019-05-16T14:31:07.656Z,88.42
2019-05-16T14:33:36.712Z,88.12
2019-05-16T14:36:07.358Z,88.20
2019-05-16T14:38:37.490Z,88.49
2019-05-16T14:41:08.052Z,88.52
2019-05-16T14:43:36.509Z,88.53
2019-05-16T14:46:09.278Z,88.02
2019-05-16T14:48:37.046Z,88.39
2019-05-16T14:51:05.818Z,88.41
2019-05-16T14:53:34.365Z,88.55
2019-05-16T14:56:02.833Z,88.60
2019-05-16T14:58:31.319Z,88.41
2019-05-16T15:00:59.844Z,88.37
2019-05-16T15:03:28.343Z,88.47
2019-05-16T15:05:59.001Z,88.92
2019-05-16T15:08:27.069Z,88.23
2019-05-16T15:10:57.408Z,88.37
2019-05-16T15:13:27.978Z,87.91
2019-05-16T15:16:00.162Z,87.99
2019-05-16T15:18:29.880Z,87.96
2019-05-16T15:20:58.445Z,87.61
2019-05-16T15:23:28.384Z,87.31
2019-05-16T15:25:57.362Z,87.23
2019-05-16T15:28:29.640Z,87.62
2019-05-16T15:30:57.494Z,87.25
2019-05-16T15:33:27.644Z,87.34
2019-05-16T15:35:57.690Z,87.55
2019-05-16T15:38:27.204Z,86.99
2019-05-16T15:40:57.382Z,87.65
2019-05-16T15:43:27.485Z,87.71
2019-05-16T15:46:00.471Z,87.52
2019-05-16T15:48:28.242Z,87.88
2019-05-16T15:50:59.798Z,87.88
2019-05-16T15:53:27.266Z,88.19
2019-05-16T15:55:57.690Z,88.43
2019-05-16T15:58:26.774Z,88.90
2019-05-16T16:00:58.011Z,88.79
2019-05-16T16:03:27.134Z,88.79
2019-05-16T16:06:03.139Z,88.63
2019-05-16T16:08:31.689Z,88.80
2019-05-16T16:11:00.191Z,88.91
2019-05-16T16:13:28.673Z,88.39
2019-05-16T16:15:57.779Z,88.59
2019-05-16T16:18:27.052Z,88.78
2019-05-16T16:20:57.035Z,89.00
2019-05-16T16:23:27.315Z,88.90
2019-05-16T16:25:59.696Z,88.46
2019-05-16T16:28:27.128Z,88.62
2019-05-16T16:30:57.177Z,88.23
2019-05-16T16:33:29.775Z,88.02
2019-05-16T16:35:57.171Z,88.33
2019-05-16T16:38:26.038Z,88.09
2019-05-16T16:40:57.182Z,87.91
2019-05-16T16:43:24.804Z,87.94
2019-05-16T16:46:04.336Z,88.60
2019-05-16T16:48:23.534Z,88.22
2019-05-16T16:50:52.338Z,88.48
2019-05-16T16:53:22.690Z,88.35
2019-05-16T16:55:51.269Z,88.15
2019-05-16T16:58:19.762Z,88.61
2019-05-16T17:00:48.414Z,88.37
2019-05-16T17:03:16.959Z,88.41
2019-05-16T17:05:46.515Z,88.62
2019-05-16T17:08:16.850Z,88.78
2019-05-16T17:10:47.699Z,88.75
2019-05-16T17:13:16.970Z,89.07
2019-05-16T17:15:47.343Z,89.27
2019-05-16T17:18:17.500Z,89.45
2019-05-16T17:20:47.751Z,89.42
2019-05-16T17:23:17.287Z,89.83
2019-05-16T17:25:47.164Z,90.15
2019-05-16T17:28:17.429Z,89.95
2019-05-16T17:30:47.038Z,90.10
2019-05-16T17:33:18.279Z,90.00
2019-05-16T17:35:49.029Z,90.06
2019-05-16T17:38:20.679Z,89.87
2019-05-16T17:40:49.235Z,89.72
2019-05-16T17:43:17.769Z,89.63
2019-05-16T17:45:49.285Z,89.86
2019-05-16T17:48:20.824Z,90.42
2019-05-16T17:50:49.353Z,90.31
2019-05-16T17:53:18.527Z,90.42
2019-05-16T17:55:49.289Z,90.46
2019-05-16T17:58:17.818Z,90.68
2019-05-16T18:00:47.357Z,90.99
2019-05-16T18:03:17.455Z,90.76
2019-05-16T18:05:47.524Z,90.77
2019-05-16T18:08:16.355Z,90.77
2019-05-16T18:10:47.114Z,90.65
2019-05-16T18:13:15.359Z,90.66
2019-05-16T18:15:43.919Z,90.44
2019-05-16T18:18:12.411Z,90.41
2019-05-16T18:20:54.484Z,90.42
2019-05-16T18:23:11.261Z,90.61
2019-05-16T18:25:43.202Z,90.61
2019-05-16T18:28:12.268Z,90.55
2019-05-16T18:30:40.786Z,90.60
2019-05-16T18:33:09.276Z,90.46
2019-05-16T18:35:37.869Z,90.60
2019-05-16T18:38:07.600Z,90.67
2019-05-16T18:40:37.008Z,90.86
2019-05-16T18:43:08.251Z,91.02
2019-05-16T18:45:36.803Z,91.03
2019-05-16T18:48:07.461Z,91.04
2019-05-16T18:50:37.606Z,91.21
2019-05-16T18:53:07.445Z,91.00
2019-05-16T18:55:37.035Z,91.33
2019-05-16T18:58:08.586Z,91.16
2019-05-16T19:00:37.696Z,91.21
2019-05-16T19:03:07.711Z,91.24
2019-05-16T19:05:37.475Z,91.18
2019-05-16T19:08:07.217Z,90.81
2019-05-16T19:10:36.910Z,91.04
2019-05-16T19:13:08.472Z,90.90
2019-05-16T19:15:38.521Z,90.70
2019-05-16T19:18:08.061Z,90.59
2019-05-16T19:20:37.614Z,90.55
2019-05-16T19:23:07.305Z,90.55
2019-05-16T19:25:36.309Z,90.58
2019-05-16T19:28:06.821Z,90.87
2019-05-16T19:30:37.359Z,90.83
2019-05-16T19:33:08.071Z,90.80
2019-05-16T19:35:36.912Z,90.76
2019-05-16T19:38:07.064Z,90.72
2019-05-16T19:40:37.626Z,90.81
2019-05-16T19:43:08.856Z,90.66
2019-05-16T19:45:37.571Z,90.38
2019-05-16T19:48:07.731Z,90.23
2019-05-16T19:50:37.151Z,90.41
2019-05-16T19:53:07.590Z,90.64
2019-05-16T19:55:36.715Z,90.97
2019-05-16T19:58:07.472Z,90.96
2019-05-16T20:00:38.914Z,91.10
2019-05-16T20:03:10.051Z,91.05
2019-05-16T20:05:38.591Z,91.04
2019-05-16T20:08:07.399Z,90.99
2019-05-16T20:10:36.872Z,91.18
2019-05-16T20:13:07.694Z,91.36
2019-05-16T20:15:41.626Z,91.41
2019-05-16T20:18:10.405Z,91.42
2019-05-16T20:20:38.902Z,91.17
2019-05-16T20:23:08.926Z,91.04
2019-05-16T20:25:37.513Z,91.18
2019-05-16T20:28:09.139Z,91.15
2019-05-16T20:30:37.926Z,91.37
2019-05-16T20:33:09.395Z,91.40
2019-05-16T20:35:39.814Z,91.56
2019-05-16T20:38:10.083Z,91.72
2019-05-16T20:40:41.173Z,91.94
2019-05-16T20:43:11.199Z,91.89
2019-05-16T20:45:41.277Z,91.95
2019-05-16T20:48:14.994Z,92.17
2019-05-16T20:50:40.115Z,92.10
2019-05-16T20:53:08.625Z,92.11
2019-05-16T20:55:37.894Z,92.24
2019-05-16T20:58:07.618Z,92.01
2019-05-16T21:00:37.899Z,91.80
2019-05-16T21:03:08.425Z,91.77
2019-05-16T21:05:38.588Z,91.78
2019-05-16T21:08:07.115Z,91.96
2019-05-16T21:10:35.607Z,92.12
2019-05-16T21:13:06.699Z,91.82
2019-05-16T21:15:37.068Z,91.78
2019-05-16T21:18:04.659Z,92.04
2019-05-16T21:20:33.432Z,92.13
2019-05-16T21:23:01.985Z,91.99
2019-05-16T21:25:30.490Z,91.84
2019-05-16T21:27:59.037Z,91.78
2019-05-16T21:30:27.871Z,91.80
2019-05-16T21:32:57.876Z,91.60
2019-05-16T21:35:29.448Z,91.45
2019-05-16T21:37:58.289Z,91.53
2019-05-16T21:40:26.779Z,91.69
2019-05-16T21:42:58.578Z,91.75
2019-05-16T21:45:28.455Z,92.16
2019-05-16T21:47:56.833Z,92.25
2019-05-16T21:50:27.559Z,92.06
2019-05-16T21:52:56.468Z,91.80
2019-05-16T21:55:27.352Z,91.56
2019-05-16T21:57:57.471Z,91.61
2019-05-16T22:00:39.091Z,91.74
2019-05-16T22:03:08.163Z,91.64
2019-05-16T22:05:37.139Z,91.73
2019-05-16T22:08:07.458Z,91.78
2019-05-16T22:10:37.271Z,91.87
2019-05-16T22:13:07.761Z,91.86
2019-05-16T22:15:36.740Z,91.97
2019-05-16T22:18:07.177Z,92.17
2019-05-16T22:20:35.783Z,92.37
2019-05-16T22:23:06.777Z,92.42
2019-05-16T22:25:34.596Z,92.24
2019-05-16T22:28:03.242Z,92.17
2019-05-16T22:30:31.759Z,92.03
2019-05-16T22:33:00.245Z,91.75
2019-05-16T22:35:28.789Z,91.57
2019-05-16T22:37:59.346Z,91.29
2019-05-16T22:40:27.615Z,91.19
2019-05-16T22:42:57.533Z,91.24
2019-05-16T22:45:27.661Z,91.31
2019-05-16T22:47:56.162Z,91.19
2019-05-16T22:50:26.939Z,91.26
2019-05-16T22:52:56.990Z,91.26
2019-05-16T22:55:26.456Z,91.35
2019-05-16T22:57:56.473Z,91.33
2019-05-16T23:00:29.553Z,91.37
2019-05-16T23:02:58.132Z,91.49
2019-05-16T23:05:27.447Z,91.51
2019-05-16T23:08:05.585Z,91.48
2019-05-16T23:10:28.107Z,91.23
2019-05-16T23:12:57.311Z,91.39
2019-05-16T23:15:26.657Z,91.68
2019-05-16T23:17:57.173Z,91.89
2019-05-16T23:20:27.528Z,92.12
2019-05-16T23:22:56.289Z,92.13
2019-05-16T23:25:24.888Z,92.16
2019-05-16T23:27:53.470Z,92.14
2019-05-16T23:30:22.069Z,92.29
2019-05-16T23:32:50.629Z,92.49
2019-05-16T23:35:19.118Z,92.58
2019-05-16T23:37:47.673Z,92.63
2019-05-16T23:40:16.311Z,93.02
2019-05-16T23:42:46.490Z,93.29
2019-05-16T23:45:17.046Z,93.41
2019-05-16T23:47:47.169Z,93.49
2019-05-16T23:50:17.065Z,93.41
2019-05-16T23:52:47.174Z,93.46
2019-05-16T23:55:17.438Z,93.37
2019-05-16T23:57:46.717Z,93.27
